createdAt,value
2022-10-29T00:01:30.778Z,3.78
2022-10-29T00:03:58.796Z,3.78
2022-10-29T00:06:28.403Z,3.75
2022-10-29T00:08:56.416Z,3.45
2022-10-29T00:11:25.650Z,3.38
2022-10-29T00:13:56.221Z,3.85
2022-10-29T00:16:29.365Z,3.67
2022-10-29T00:19:00.957Z,3.25
2022-10-29T00:21:32.375Z,3.25
2022-10-29T00:24:01.436Z,3.22
2022-10-29T00:26:30.891Z,3.20
2022-10-29T00:28:58.992Z,3.72
2022-10-29T00:31:27.120Z,3.58
2022-10-29T00:33:56.379Z,4.00
2022-10-29T00:36:26.266Z,4.10
2022-10-29T00:38:57.130Z,3.60
2022-10-29T00:41:30.106Z,3.85
2022-10-29T00:44:32.818Z,3.60
2022-10-29T00:47:05.112Z,3.88
2022-10-29T00:49:35.512Z,3.70
2022-10-29T00:52:05.231Z,3.80
2022-10-29T00:54:39.621Z,3.72
2022-10-29T00:57:14.397Z,3.58
2022-10-29T00:59:43.459Z,3.70
2022-10-29T01:02:12.164Z,3.85
2022-10-29T01:04:41.402Z,3.33
2022-10-29T01:07:09.791Z,3.45
2022-10-29T01:09:42.536Z,3.83
2022-10-29T01:12:33.643Z,3.80
2022-10-29T01:15:10.645Z,4.15
2022-10-29T01:17:53.656Z,3.92
2022-10-29T01:20:59.888Z,3.78
2022-10-29T01:24:07.377Z,3.90
2022-10-29T01:27:19.223Z,4.20
2022-10-29T01:30:05.276Z,3.65
2022-10-29T01:32:41.179Z,4.28
2022-10-29T01:35:13.099Z,3.50
2022-10-29T01:37:50.100Z,4.25
2022-10-29T01:40:25.469Z,3.50
2022-10-29T01:43:01.117Z,4.05
2022-10-29T01:45:36.455Z,3.63
2022-10-29T01:48:09.758Z,3.47
2022-10-29T01:50:39.847Z,3.97
2022-10-29T01:53:11.402Z,4.10
2022-10-29T01:55:41.956Z,3.63
2022-10-29T01:58:10.988Z,3.63
2022-10-29T02:00:49.388Z,3.40
2022-10-29T02:03:29.664Z,3.75
2022-10-29T02:06:08.291Z,3.70
2022-10-29T02:08:45.405Z,3.97
2022-10-29T02:11:19.240Z,3.95
2022-10-29T02:13:52.404Z,3.13
2022-10-29T02:16:21.640Z,3.20
2022-10-29T02:18:54.244Z,3.15
2022-10-29T02:21:22.769Z,3.10
2022-10-29T02:23:51.403Z,3.15
2022-10-29T02:26:19.543Z,3.63
2022-10-29T02:28:47.541Z,2.95
2022-10-29T02:31:15.545Z,3.85
2022-10-29T02:33:44.901Z,3.45
2022-10-29T02:36:14.375Z,2.90
2022-10-29T02:38:43.708Z,3.30
2022-10-29T02:41:11.769Z,3.08
2022-10-29T02:43:39.784Z,3.22
2022-10-29T02:46:15.572Z,3.28
2022-10-29T02:48:43.776Z,2.90
2022-10-29T02:51:12.514Z,3.65
2022-10-29T02:53:42.200Z,3.15
2022-10-29T02:56:10.513Z,3.20
2022-10-29T02:58:38.827Z,3.20
2022-10-29T03:01:07.705Z,3.50
2022-10-29T03:03:38.943Z,3.88
2022-10-29T03:06:13.842Z,3.92
2022-10-29T03:08:47.461Z,4.03
2022-10-29T03:11:15.519Z,3.38
2022-10-29T03:13:43.627Z,3.90
2022-10-29T03:16:14.074Z,3.70
2022-10-29T03:18:42.138Z,3.67
2022-10-29T03:21:10.448Z,4.15
2022-10-29T03:23:38.506Z,3.47
2022-10-29T03:26:08.064Z,4.10
2022-10-29T03:28:36.114Z,3.90
2022-10-29T03:31:04.260Z,4.28
2022-10-29T03:33:32.310Z,3.58
2022-10-29T03:36:05.726Z,3.75
2022-10-29T03:38:34.495Z,4.25
2022-10-29T03:41:08.565Z,4.07
2022-10-29T03:43:38.465Z,3.88
2022-10-29T03:46:07.500Z,3.90
2022-10-29T03:48:38.259Z,4.30
2022-10-29T03:51:07.762Z,4.13
2022-10-29T03:53:37.019Z,3.97
2022-10-29T03:56:08.241Z,4.13
2022-10-29T03:58:37.777Z,4.05
2022-10-29T04:01:07.614Z,4.28
2022-10-29T04:03:37.341Z,3.90
2022-10-29T04:06:13.015Z,4.10
2022-10-29T04:08:41.358Z,4.05
2022-10-29T04:11:12.594Z,4.82
2022-10-29T04:13:42.104Z,4.25
2022-10-29T04:16:10.434Z,4.20
2022-10-29T04:18:38.478Z,3.97
2022-10-29T04:29:33.204Z,4.15
2022-10-29T04:32:03.774Z,4.10
2022-10-29T04:34:31.880Z,4.15
2022-10-29T04:36:59.906Z,3.90
2022-10-29T04:39:27.976Z,3.15
2022-10-29T04:41:56.080Z,3.03
2022-10-29T04:44:24.631Z,2.67
2022-10-29T04:46:54.162Z,3.30
2022-10-29T04:49:22.303Z,3.03
2022-10-29T04:51:52.781Z,2.95
2022-10-29T04:54:20.934Z,3.40
2022-10-29T04:56:49.253Z,3.75
2022-10-29T04:59:17.463Z,4.00
2022-10-29T05:01:49.906Z,4.15
2022-10-29T05:04:19.494Z,4.18
2022-10-29T05:06:50.547Z,5.05
2022-10-29T05:09:20.452Z,5.10
2022-10-29T05:11:48.730Z,5.65
2022-10-29T05:14:16.932Z,4.85
2022-10-29T05:16:47.955Z,4.72
2022-10-29T05:19:16.128Z,4.53
2022-10-29T05:21:45.670Z,4.30
2022-10-29T05:24:14.101Z,3.83
2022-10-29T05:26:42.200Z,3.60
2022-10-29T05:29:10.390Z,3.40
2022-10-29T05:31:38.535Z,4.47
2022-10-29T05:34:06.785Z,4.07
2022-10-29T05:36:37.109Z,3.35
2022-10-29T05:39:06.795Z,3.30
2022-10-29T05:41:35.106Z,3.53
2022-10-29T05:44:03.503Z,4.38
2022-10-29T05:46:31.741Z,3.65
2022-10-29T05:48:59.940Z,4.07
2022-10-29T05:51:28.051Z,3.78
2022-10-29T05:53:56.233Z,4.18
2022-10-29T05:56:25.718Z,3.35
2022-10-29T05:58:53.882Z,3.65
2022-10-29T06:01:21.977Z,4.63
2022-10-29T06:03:50.373Z,4.28
2022-10-29T06:06:18.450Z,4.20
2022-10-29T06:08:46.529Z,4.20
2022-10-29T06:11:14.563Z,3.83
2022-10-29T06:13:44.116Z,4.32
2022-10-29T06:16:12.142Z,3.83
2022-10-29T06:18:40.235Z,4.18
2022-10-29T06:21:08.270Z,3.75
2022-10-29T06:23:36.293Z,4.03
2022-10-29T06:26:04.486Z,3.80
2022-10-29T06:28:34.835Z,4.43
2022-10-29T06:31:04.419Z,4.35
2022-10-29T06:33:32.556Z,3.80
2022-10-29T06:36:01.276Z,4.32
2022-10-29T06:38:29.378Z,4.10
2022-10-29T06:40:58.407Z,3.40
2022-10-29T06:43:26.524Z,3.60
2022-10-29T06:45:54.576Z,4.25
2022-10-29T06:48:25.482Z,3.60
2022-10-29T06:50:53.602Z,3.67
2022-10-29T06:53:21.693Z,3.92
2022-10-29T06:55:49.726Z,3.75
2022-10-29T06:58:22.603Z,3.88
2022-10-29T07:00:50.726Z,4.00
2022-10-29T07:03:20.304Z,3.55
2022-10-29T07:05:55.935Z,4.25
2022-10-29T07:08:24.191Z,3.78
2022-10-29T07:10:53.476Z,4.28
2022-10-29T07:13:21.616Z,3.60
2022-10-29T07:15:49.629Z,4.13
2022-10-29T07:18:17.658Z,3.60
2022-10-29T07:20:46.457Z,3.50
2022-10-29T07:23:16.015Z,4.13
2022-10-29T07:25:44.109Z,4.28
2022-10-29T07:28:17.338Z,4.30
2022-10-29T07:30:46.166Z,4.90
2022-10-29T07:33:14.652Z,4.93
2022-10-29T07:35:42.948Z,4.78
2022-10-29T07:38:12.582Z,4.57
2022-10-29T07:40:51.106Z,3.85
2022-10-29T07:43:20.339Z,4.38
2022-10-29T07:45:50.603Z,4.50
2022-10-29T07:48:19.731Z,4.40
2022-10-29T07:50:48.541Z,3.45
2022-10-29T07:53:17.063Z,4.20
2022-10-29T07:55:52.614Z,4.55
2022-10-29T07:58:20.711Z,3.67
2022-10-29T08:00:48.987Z,4.00
2022-10-29T08:03:17.350Z,4.50
2022-10-29T08:05:45.798Z,4.65
2022-10-29T08:08:13.769Z,4.63
2022-10-29T08:10:41.759Z,4.88
2022-10-29T08:13:11.231Z,3.90
2022-10-29T08:15:39.237Z,4.57
2022-10-29T08:18:12.769Z,4.22
2022-10-29T08:20:43.852Z,4.55
2022-10-29T08:23:12.086Z,4.55
2022-10-29T08:25:43.741Z,4.50
2022-10-29T08:28:15.644Z,4.70
2022-10-29T08:30:45.225Z,4.20
2022-10-29T08:33:13.313Z,4.30
2022-10-29T08:35:41.292Z,4.05
2022-10-29T08:38:09.560Z,3.83
2022-10-29T08:40:55.892Z,4.45
2022-10-29T08:44:04.586Z,4.15
2022-10-29T08:46:44.949Z,3.97
2022-10-29T08:49:18.363Z,3.90
2022-10-29T08:51:52.981Z,4.30
2022-10-29T08:54:36.286Z,4.40
2022-10-29T08:57:08.535Z,4.72
2022-10-29T08:59:45.195Z,4.47
2022-10-29T09:02:17.888Z,4.47
2022-10-29T09:04:46.097Z,4.15
2022-10-29T09:07:38.390Z,4.88
2022-10-29T09:10:13.548Z,4.30
2022-10-29T09:12:57.951Z,5.32
2022-10-29T09:15:39.854Z,5.20
2022-10-29T09:18:25.289Z,4.32
2022-10-29T09:20:56.939Z,4.88
2022-10-29T09:23:46.861Z,4.78
2022-10-29T09:26:18.583Z,4.60
2022-10-29T09:29:07.762Z,4.75
2022-10-29T09:31:43.472Z,5.57
2022-10-29T09:34:18.053Z,4.45
2022-10-29T09:36:49.704Z,4.53
2022-10-29T09:39:30.181Z,5.15
2022-10-29T09:42:02.820Z,5.20
2022-10-29T09:44:38.968Z,5.50
2022-10-29T09:47:20.845Z,5.30
2022-10-29T09:50:05.427Z,6.07
2022-10-29T09:52:40.367Z,4.85
2022-10-29T09:55:18.551Z,4.30
2022-10-29T09:57:47.081Z,4.85
2022-10-29T10:00:21.545Z,4.53
2022-10-29T10:02:57.599Z,4.68
2022-10-29T10:05:31.038Z,4.57
2022-10-29T10:08:08.028Z,5.07
2022-10-29T10:10:38.185Z,5.05
2022-10-29T10:13:17.170Z,5.18
2022-10-29T10:15:53.049Z,5.85
2022-10-29T10:18:24.066Z,5.63
2022-10-29T10:21:05.918Z,5.28
2022-10-29T10:23:43.931Z,6.75
2022-10-29T10:26:36.494Z,9.07
2022-10-29T10:29:12.929Z,5.15
2022-10-29T10:31:41.231Z,5.43
2022-10-29T10:34:16.640Z,5.22
2022-10-29T10:36:47.735Z,6.43
2022-10-29T10:39:26.013Z,4.90
2022-10-29T10:41:58.161Z,5.15
2022-10-29T10:44:26.362Z,4.43
2022-10-29T10:46:56.843Z,4.53
2022-10-29T10:49:33.095Z,5.32
2022-10-29T10:52:04.004Z,5.18
2022-10-29T10:54:36.994Z,5.05
2022-10-29T10:57:19.412Z,5.18
2022-10-29T10:59:56.831Z,4.95
2022-10-29T11:02:33.442Z,4.95
2022-10-29T11:05:13.109Z,5.13
2022-10-29T11:07:47.053Z,4.90
2022-10-29T11:10:18.338Z,4.80
2022-10-29T11:12:50.282Z,4.93
2022-10-29T11:15:27.241Z,5.30
2022-10-29T11:18:01.438Z,5.47
2022-10-29T11:20:35.609Z,5.97
2022-10-29T11:23:22.580Z,5.78
2022-10-29T11:25:56.293Z,5.00
2022-10-29T11:28:30.502Z,5.25
2022-10-29T11:31:06.384Z,5.28
2022-10-29T11:33:46.207Z,5.18
2022-10-29T11:36:21.082Z,5.03
2022-10-29T11:38:55.045Z,4.97
2022-10-29T11:41:28.997Z,5.00
2022-10-29T11:43:57.092Z,4.97
2022-10-29T11:46:34.026Z,5.43
2022-10-29T11:49:12.171Z,4.63
2022-10-29T11:51:47.967Z,5.05
2022-10-29T11:54:25.426Z,4.80
2022-10-29T11:56:59.258Z,4.60
2022-10-29T11:59:39.215Z,4.80
2022-10-29T12:02:24.980Z,5.47
2022-10-29T12:05:00.200Z,5.32
2022-10-29T12:07:43.717Z,4.68
2022-10-29T12:10:28.731Z,5.13
2022-10-29T12:13:03.853Z,5.55
2022-10-29T12:15:38.346Z,5.40
2022-10-29T12:18:14.689Z,6.22
2022-10-29T12:20:48.685Z,5.20
2022-10-29T12:23:28.663Z,5.82
2022-10-29T12:26:04.630Z,5.60
2022-10-29T12:28:42.896Z,5.30
2022-10-29T12:31:21.970Z,5.40
2022-10-29T12:33:54.985Z,5.22
2022-10-29T12:36:30.682Z,5.50
2022-10-29T12:39:02.122Z,5.47
2022-10-29T12:41:36.501Z,5.10
2022-10-29T12:44:14.020Z,5.72
2022-10-29T12:46:48.139Z,5.53
2022-10-29T12:49:20.871Z,6.00
2022-10-29T12:51:54.899Z,8.20
2022-10-29T12:54:43.258Z,6.40
2022-10-29T12:57:30.671Z,5.63
2022-10-29T13:00:17.483Z,6.00
2022-10-29T13:02:45.899Z,6.22
2022-10-29T13:05:16.290Z,6.68
2022-10-29T13:08:11.598Z,5.97
2022-10-29T13:10:55.630Z,5.78
2022-10-29T13:13:48.184Z,5.72
2022-10-29T13:16:19.306Z,5.80
2022-10-29T13:19:15.831Z,5.78
2022-10-29T13:22:04.476Z,6.35
2022-10-29T13:24:32.609Z,6.57
2022-10-29T13:27:29.633Z,6.72
2022-10-29T13:30:21.961Z,7.32
2022-10-29T13:32:49.956Z,7.55
2022-10-29T13:35:42.859Z,8.07
2022-10-29T13:38:13.460Z,8.15
2022-10-29T13:41:20.315Z,8.00
2022-10-29T13:43:58.577Z,6.43
2022-10-29T13:46:48.759Z,7.30
2022-10-29T13:49:23.270Z,7.35
2022-10-29T13:51:56.160Z,7.63
2022-10-29T13:54:33.059Z,7.45
2022-10-29T13:57:05.443Z,8.55
2022-10-29T13:59:42.988Z,8.45
2022-10-29T14:02:33.263Z,8.65
2022-10-29T14:05:09.702Z,6.72
2022-10-29T14:07:45.155Z,7.32
2022-10-29T14:10:19.433Z,7.32
2022-10-29T14:12:48.479Z,6.18
2022-10-29T14:15:21.077Z,6.78
2022-10-29T14:17:49.215Z,6.85
2022-10-29T14:20:25.842Z,7.75
2022-10-29T14:22:54.569Z,7.53
2022-10-29T14:25:35.769Z,7.40
2022-10-29T14:28:11.978Z,6.85
2022-10-29T14:30:41.364Z,7.50
2022-10-29T14:33:20.124Z,6.80
2022-10-29T14:35:48.670Z,5.78
2022-10-29T14:38:17.676Z,5.55
2022-10-29T14:40:47.802Z,4.20
2022-10-29T14:43:25.019Z,3.70
2022-10-29T14:45:56.854Z,3.40
2022-10-29T14:48:25.021Z,3.35
2022-10-29T14:50:56.594Z,3.53
2022-10-29T14:53:31.090Z,3.30
2022-10-29T14:56:00.327Z,3.80
2022-10-29T14:58:31.586Z,3.30
2022-10-29T15:01:03.474Z,3.38
2022-10-29T15:03:33.899Z,3.50
2022-10-29T15:06:16.825Z,3.60
2022-10-29T15:08:46.776Z,3.35
2022-10-29T15:11:39.179Z,3.15
2022-10-29T15:16:57.238Z,3.63
2022-10-29T15:19:27.555Z,3.97
2022-10-29T15:21:55.699Z,3.45
2022-10-29T15:24:25.402Z,3.45
2022-10-29T15:26:55.893Z,3.05
2022-10-29T15:29:32.284Z,3.42
2022-10-29T15:32:03.776Z,3.45
2022-10-29T15:34:34.907Z,2.95
2022-10-29T15:37:22.967Z,2.83
2022-10-29T15:40:02.986Z,3.00
2022-10-29T15:42:33.058Z,3.50
2022-10-29T15:45:20.736Z,3.10
2022-10-29T15:47:51.380Z,3.13
2022-10-29T15:50:21.667Z,3.17
2022-10-29T15:52:54.267Z,2.50
2022-10-29T15:55:27.051Z,2.83
2022-10-29T15:58:00.568Z,3.63
2022-10-29T16:00:30.434Z,3.05
2022-10-29T16:03:04.124Z,2.95
2022-10-29T16:05:32.648Z,2.75
2022-10-29T16:08:03.504Z,3.00
2022-10-29T16:10:31.708Z,3.08
2022-10-29T16:13:01.978Z,3.65
2022-10-29T16:15:30.048Z,3.10
2022-10-29T16:17:58.474Z,3.03
2022-10-29T16:20:28.348Z,2.78
2022-10-29T16:22:56.485Z,2.90
2022-10-29T16:25:29.581Z,3.58
2022-10-29T16:27:57.970Z,3.40
2022-10-29T16:30:29.463Z,3.42
2022-10-29T16:32:58.216Z,3.33
2022-10-29T16:35:29.274Z,2.92
2022-10-29T16:38:01.321Z,3.45
2022-10-29T16:40:30.732Z,3.30
2022-10-29T16:42:59.189Z,3.30
2022-10-29T16:45:30.169Z,2.88
2022-10-29T16:47:59.695Z,3.15
2022-10-29T16:50:31.380Z,2.90
2022-10-29T16:53:02.837Z,3.30
2022-10-29T16:55:31.468Z,3.35
2022-10-29T16:58:00.019Z,3.13
2022-10-29T17:00:31.568Z,3.17
2022-10-29T17:03:05.135Z,2.80
2022-10-29T17:05:40.849Z,2.72
2022-10-29T17:08:10.601Z,2.63
2022-10-29T17:10:38.991Z,3.33
2022-10-29T17:13:11.880Z,2.75
2022-10-29T17:15:41.680Z,3.05
2022-10-29T17:18:10.156Z,2.70
2022-10-29T17:20:39.750Z,3.42
2022-10-29T17:23:07.852Z,3.50
2022-10-29T17:25:37.845Z,3.28
2022-10-29T17:28:05.913Z,3.20
2022-10-29T17:30:33.948Z,4.25
2022-10-29T17:33:02.112Z,3.58
2022-10-29T17:35:30.187Z,3.72
2022-10-29T17:37:59.543Z,3.40
2022-10-29T17:40:27.622Z,3.63
2022-10-29T17:42:55.894Z,2.70
2022-10-29T17:45:24.195Z,2.88
2022-10-29T17:47:55.781Z,3.22
2022-10-29T17:50:24.746Z,2.92
2022-10-29T17:52:57.845Z,2.80
2022-10-29T17:55:30.092Z,2.88
2022-10-29T17:57:58.655Z,3.00
2022-10-29T18:00:27.122Z,2.90
2022-10-29T18:02:55.894Z,2.70
2022-10-29T18:05:23.954Z,2.78
2022-10-29T18:07:51.957Z,3.15
2022-10-29T18:10:20.083Z,3.20
2022-10-29T18:12:49.503Z,3.05
2022-10-29T18:15:19.737Z,2.95
2022-10-29T18:17:48.002Z,2.92
2022-10-29T18:20:17.042Z,2.83
2022-10-29T18:22:53.266Z,2.58
2022-10-29T18:25:23.894Z,2.90
2022-10-29T18:27:56.770Z,3.50
2022-10-29T18:30:25.766Z,2.70
2022-10-29T18:32:53.928Z,3.17
2022-10-29T18:35:27.306Z,3.35
2022-10-29T18:37:55.583Z,3.42
2022-10-29T18:40:23.963Z,3.20
2022-10-29T18:42:53.505Z,3.08
2022-10-29T18:45:21.579Z,3.30
2022-10-29T18:47:49.619Z,3.17
2022-10-29T18:50:17.849Z,2.72
2022-10-29T18:52:45.838Z,3.53
2022-10-29T18:55:13.943Z,2.90
2022-10-29T18:57:42.032Z,2.78
2022-10-29T19:00:13.028Z,3.22
2022-10-29T19:02:43.772Z,2.63
2022-10-29T19:05:15.034Z,3.13
2022-10-29T19:07:43.102Z,3.05
2022-10-29T19:10:11.657Z,2.92
2022-10-29T19:12:42.794Z,3.30
2022-10-29T19:15:12.692Z,2.72
2022-10-29T19:17:40.818Z,3.10
2022-10-29T19:20:09.506Z,3.35
2022-10-29T19:22:40.214Z,2.72
2022-10-29T19:25:09.180Z,3.13
2022-10-29T19:27:39.136Z,3.08
2022-10-29T19:30:10.430Z,3.35
2022-10-29T19:32:42.855Z,3.13
2022-10-29T19:35:11.456Z,2.92
2022-10-29T19:37:40.152Z,2.83
2022-10-29T19:40:12.300Z,3.28
2022-10-29T19:42:43.119Z,3.67
2022-10-29T19:45:11.714Z,3.58
2022-10-29T19:47:41.206Z,3.78
2022-10-29T19:50:14.234Z,3.70
2022-10-29T19:52:42.401Z,3.70
2022-10-29T19:55:10.949Z,3.05
2022-10-29T19:57:39.226Z,3.35
2022-10-29T20:00:12.150Z,4.50
2022-10-29T20:02:44.417Z,4.22
2022-10-29T20:05:12.552Z,3.60
2022-10-29T20:07:43.474Z,3.55
2022-10-29T20:10:16.278Z,3.75
2022-10-29T20:12:44.402Z,3.58
2022-10-29T20:15:12.960Z,3.22
2022-10-29T20:17:41.320Z,3.30
2022-10-29T20:20:16.635Z,2.90
2022-10-29T20:22:46.372Z,3.63
2022-10-29T20:25:15.372Z,3.45
2022-10-29T20:27:45.541Z,3.50
2022-10-29T20:30:14.260Z,3.08
2022-10-29T20:32:42.288Z,3.20
2022-10-29T20:35:17.480Z,3.25
2022-10-29T20:37:47.646Z,3.40
2022-10-29T20:40:15.899Z,3.22
2022-10-29T20:42:44.053Z,2.75
2022-10-29T20:45:14.432Z,3.50
2022-10-29T20:47:42.457Z,3.25
2022-10-29T20:50:13.028Z,3.10
2022-10-29T20:52:48.285Z,3.53
2022-10-29T20:55:18.707Z,2.83
2022-10-29T20:57:48.695Z,3.75
2022-10-29T21:00:17.002Z,3.35
2022-10-29T21:02:45.111Z,3.15
2022-10-29T21:05:16.832Z,3.42
2022-10-29T21:07:44.878Z,2.97
2022-10-29T21:10:12.869Z,3.65
2022-10-29T21:12:40.989Z,3.75
2022-10-29T21:15:10.078Z,3.05
2022-10-29T21:17:41.156Z,3.28
2022-10-29T21:20:09.801Z,3.30
2022-10-29T21:22:41.962Z,3.35
2022-10-29T21:25:10.773Z,2.80
2022-10-29T21:27:41.583Z,3.20
2022-10-29T21:30:12.619Z,2.90
2022-10-29T21:32:40.813Z,3.25
2022-10-29T21:35:09.774Z,3.65
2022-10-29T21:37:39.343Z,2.75
2022-10-29T21:40:08.521Z,3.63
2022-10-29T21:42:36.583Z,3.50
2022-10-29T21:45:07.901Z,3.45
2022-10-29T21:47:35.956Z,3.38
2022-10-29T21:50:04.015Z,3.75
2022-10-29T21:52:32.145Z,3.70
2022-10-29T21:55:01.518Z,3.10
2022-10-29T21:57:29.634Z,3.38
2022-10-29T21:59:57.813Z,3.40
2022-10-29T22:02:25.993Z,3.50
2022-10-29T22:04:54.100Z,3.00
2022-10-29T22:07:22.083Z,3.75
2022-10-29T22:09:50.179Z,3.13
2022-10-29T22:12:19.709Z,3.10
2022-10-29T22:14:50.758Z,3.20
2022-10-29T22:17:19.225Z,3.58
2022-10-29T22:19:47.305Z,3.28
2022-10-29T22:22:15.374Z,3.72
2022-10-29T22:24:43.473Z,3.65
2022-10-29T22:27:11.482Z,3.17
2022-10-29T22:29:41.004Z,2.60
2022-10-29T22:32:11.788Z,2.90
2022-10-29T22:34:39.909Z,3.17
2022-10-29T22:37:08.074Z,3.10
2022-10-29T22:39:36.189Z,3.10
2022-10-29T22:42:04.327Z,3.65
2022-10-29T22:44:34.735Z,3.03
2022-10-29T22:47:04.299Z,3.08
2022-10-29T22:49:32.300Z,3.25
2022-10-29T22:52:01.637Z,3.28
2022-10-29T22:54:29.895Z,3.30
2022-10-29T22:56:57.897Z,3.28
2022-10-29T22:59:26.041Z,3.90
2022-10-29T23:01:54.105Z,3.50
2022-10-29T23:04:23.948Z,3.78
2022-10-29T23:06:51.988Z,3.67
2022-10-29T23:09:19.992Z,4.10
2022-10-29T23:11:48.074Z,3.78
2022-10-29T23:14:16.115Z,3.78
2022-10-29T23:16:44.198Z,3.60
2022-10-29T23:19:12.702Z,3.13
2022-10-29T23:21:42.147Z,3.38
2022-10-29T23:24:13.144Z,3.40
2022-10-29T23:26:41.304Z,3.60
2022-10-29T23:29:09.390Z,3.28
2022-10-29T23:31:40.291Z,3.22
2022-10-29T23:34:08.253Z,3.22
2022-10-29T23:36:39.368Z,3.33
2022-10-29T23:39:08.802Z,3.30
2022-10-29T23:41:37.074Z,3.45
2022-10-29T23:44:05.194Z,3.05
2022-10-29T23:46:35.957Z,3.47
2022-10-29T23:49:03.957Z,3.03
2022-10-29T23:51:32.118Z,3.03
2022-10-29T23:54:02.697Z,3.30
2022-10-29T23:56:32.170Z,3.72
2022-10-29T23:59:00.237Z,3.20
